Herman, Pennsylvania
Current Conditions -  °F | °C
As of 2:55 AM on Monday 24 Nov 2014 (Local Time) from KBTP Reporting Station
Overcast Overcast  
Wind Chill: 54°   Ceiling: 4600
Heat Index: 54°   Visibility: 10mi
Dew Point: 48°   Wind: 14mph
Humidity: 82%   Direction: 170°S
Pressure: 29.41"   Gusts: 24mph
Location:  40.83°N, 79.81°W
Report Text: KBTP 240755Z AUTO 17012G21KT 10SM SCT039 BKN046 OVC050 12/09 A2941 RMK AO1
Loading
Personal Weather Stations






























Interactive Weather Map New forecast layout! Learn more

10-Day Weather Forecast

Advertisements
Track Severe Weather on mobile